createdAt,value
2017-07-22T00:00:05.377Z,2.72
2017-07-22T00:00:11.977Z,3.15
2017-07-22T00:00:16.279Z,3.43
2017-07-22T00:00:20.574Z,3.45
2017-07-22T00:00:24.828Z,3.35
2017-07-22T00:00:29.113Z,3.50
2017-07-22T00:00:33.351Z,4.10
2017-07-22T00:00:37.611Z,4.20
2017-07-22T00:00:41.851Z,4.30
2017-07-22T00:00:46.117Z,4.43
2017-07-22T00:00:50.469Z,4.60
2017-07-22T00:00:54.705Z,4.80
2017-07-22T00:00:58.966Z,4.70
2017-07-22T00:01:03.193Z,5.05
2017-07-22T00:01:07.455Z,5.00
2017-07-22T00:01:11.753Z,4.75
2017-07-22T00:01:16.060Z,4.93
2017-07-22T00:01:20.432Z,5.10
2017-07-22T00:01:24.683Z,5.25
2017-07-22T00:01:28.938Z,5.10
2017-07-22T00:01:33.233Z,4.40
2017-07-22T00:01:37.548Z,4.45
2017-07-22T00:01:41.830Z,4.53
2017-07-22T00:01:46.086Z,4.60
2017-07-22T00:01:50.380Z,4.55
2017-07-22T00:01:54.635Z,4.50
2017-07-22T00:01:58.905Z,4.93
2017-07-22T00:02:03.189Z,4.70
2017-07-22T00:02:07.429Z,5.00
2017-07-22T00:02:27.738Z,4.90
2017-07-22T00:02:40.172Z,4.38
2017-07-22T00:02:44.595Z,4.03
2017-07-22T00:02:48.853Z,4.10
2017-07-22T00:02:53.095Z,4.10
2017-07-22T00:02:57.422Z,3.75
2017-07-22T00:03:01.745Z,3.97
2017-07-22T00:03:06.006Z,3.80
2017-07-22T00:03:22.805Z,4.25
2017-07-22T00:03:39.586Z,5.12
2017-07-22T00:03:43.882Z,5.60
2017-07-22T00:03:48.229Z,5.60
2017-07-22T00:03:52.512Z,5.60
2017-07-22T00:03:56.784Z,5.60
2017-07-22T00:04:01.021Z,5.25
2017-07-22T00:04:05.288Z,5.15
2017-07-22T00:04:09.531Z,4.63
2017-07-22T00:04:13.791Z,4.25
2017-07-22T00:04:18.032Z,4.20
2017-07-22T00:04:22.469Z,4.05
2017-07-22T00:04:27.042Z,3.90
2017-07-22T00:04:31.475Z,3.80
2017-07-22T00:04:35.744Z,3.65
2017-07-22T00:04:40.419Z,3.60
2017-07-22T00:04:45.994Z,3.67
2017-07-22T00:04:51.213Z,3.50
2017-07-22T00:04:58.613Z,3.27
2017-07-22T00:05:04.671Z,3.78
2017-07-22T00:05:09.964Z,4.30
2017-07-22T00:05:14.931Z,4.30
2017-07-22T00:05:20.536Z,3.90
2017-07-22T00:05:28.612Z,3.80
2017-07-22T00:05:33.746Z,3.89
2017-07-22T00:05:39.529Z,3.95
2017-07-22T00:05:52.340Z,3.92
2017-07-22T00:06:06.088Z,5.10
2017-07-22T00:06:12.534Z,4.58
2017-07-22T00:06:18.955Z,4.87
2017-07-22T00:06:40.428Z,5.44
2017-07-22T00:06:44.692Z,5.30
2017-07-22T00:06:48.961Z,5.05
2017-07-22T00:06:53.266Z,4.00
2017-07-22T00:06:57.524Z,3.80
2017-07-22T00:07:01.799Z,3.90
2017-07-22T00:07:06.075Z,3.90
2017-07-22T00:07:10.310Z,3.70
2017-07-22T00:07:14.599Z,3.50
2017-07-22T00:07:18.833Z,3.40
2017-07-22T00:07:23.078Z,3.50
2017-07-22T00:07:27.377Z,3.45
2017-07-22T00:07:31.681Z,3.35
2017-07-22T00:07:35.923Z,3.33
2017-07-22T00:07:40.171Z,3.60
2017-07-22T00:07:44.472Z,3.50
2017-07-22T00:07:48.704Z,3.65
2017-07-22T00:07:52.934Z,3.97
2017-07-22T00:07:57.179Z,3.90
2017-07-22T00:08:01.418Z,3.90
2017-07-22T00:08:05.676Z,3.85
2017-07-22T00:08:10.007Z,3.73
2017-07-22T00:08:14.255Z,3.70
2017-07-22T00:08:18.473Z,3.70
2017-07-22T00:08:22.707Z,3.40
2017-07-22T00:08:27.009Z,3.47
2017-07-22T00:08:31.236Z,3.50
2017-07-22T00:08:35.505Z,3.45
2017-07-22T00:08:39.823Z,3.17
2017-07-22T00:08:44.120Z,3.10
2017-07-22T00:08:48.504Z,3.15
2017-07-22T00:08:52.840Z,2.97
2017-07-22T00:08:57.225Z,2.90
2017-07-22T00:09:01.477Z,2.90
2017-07-22T00:09:05.756Z,3.00
2017-07-22T00:09:10.027Z,4.10
2017-07-22T00:09:14.286Z,4.20
2017-07-22T00:09:18.529Z,4.20
2017-07-22T00:09:22.766Z,4.20
2017-07-22T00:09:27.059Z,4.00
2017-07-22T00:09:31.310Z,3.90
2017-07-22T00:09:35.737Z,3.87
2017-07-22T00:09:40.023Z,4.05
2017-07-22T00:09:44.264Z,4.05
2017-07-22T00:09:48.510Z,3.90
2017-07-22T00:09:52.765Z,4.05
2017-07-22T00:09:57.043Z,4.00
2017-07-22T00:10:01.284Z,4.00
2017-07-22T00:10:05.524Z,3.97
2017-07-22T00:10:09.792Z,2.90
2017-07-22T00:10:14.043Z,2.95
2017-07-22T00:10:18.303Z,3.10
2017-07-22T00:10:22.590Z,3.93
2017-07-22T00:10:26.889Z,5.25
2017-07-22T00:10:31.122Z,5.45
2017-07-22T00:10:35.356Z,5.65
2017-07-22T00:10:39.626Z,5.77
2017-07-22T00:10:43.896Z,6.05
2017-07-22T00:10:48.151Z,6.00
2017-07-22T00:10:52.385Z,5.90
2017-07-22T00:10:56.636Z,5.90
2017-07-22T00:11:00.947Z,5.90
2017-07-22T00:11:05.199Z,6.05
2017-07-22T00:11:09.451Z,6.30
2017-07-22T00:11:13.682Z,6.10
2017-07-22T00:11:17.934Z,6.10
2017-07-22T00:11:22.166Z,5.75
2017-07-22T00:11:26.400Z,4.47
2017-07-22T00:11:30.652Z,4.20
2017-07-22T00:11:34.968Z,3.95
2017-07-22T00:11:39.207Z,3.67
2017-07-22T00:11:55.710Z,3.30
2017-07-22T00:12:09.152Z,3.93
2017-07-22T00:12:13.504Z,3.83
2017-07-22T00:12:17.791Z,3.75
2017-07-22T00:12:22.123Z,3.35
2017-07-22T00:12:26.417Z,3.33
2017-07-22T00:12:30.687Z,3.65
2017-07-22T00:12:34.938Z,3.75
2017-07-22T00:12:39.227Z,4.00
2017-07-22T00:12:43.540Z,4.00
2017-07-22T00:12:47.830Z,3.50
2017-07-22T00:12:52.081Z,3.40
2017-07-22T00:12:56.387Z,3.30
2017-07-22T00:13:00.641Z,3.30
2017-07-22T00:13:04.998Z,3.20
2017-07-22T00:13:09.319Z,3.10
2017-07-22T00:13:13.717Z,2.85
2017-07-22T00:13:17.995Z,2.97
2017-07-22T00:13:22.265Z,3.25
2017-07-22T00:13:26.589Z,3.15
2017-07-22T00:13:30.855Z,2.95
2017-07-22T00:13:35.216Z,2.87
2017-07-22T00:13:39.487Z,2.60
2017-07-22T00:13:43.821Z,2.55
2017-07-22T00:13:48.134Z,2.50
2017-07-22T00:13:52.410Z,2.45
2017-07-22T00:13:56.770Z,2.55
2017-07-22T00:14:01.078Z,2.77
2017-07-22T00:14:05.365Z,2.90
2017-07-22T00:14:09.704Z,2.90
2017-07-22T00:14:14.033Z,3.00
2017-07-22T00:14:18.308Z,4.05
2017-07-22T00:14:22.557Z,4.90
2017-07-22T00:14:26.935Z,5.13
2017-07-22T00:14:31.163Z,5.40
2017-07-22T00:14:35.462Z,5.55
2017-07-22T00:14:39.818Z,5.80
2017-07-22T00:14:44.149Z,6.00
2017-07-22T00:14:48.443Z,6.60
2017-07-22T00:14:52.733Z,6.43
2017-07-22T00:14:57.059Z,6.55
2017-07-22T00:15:01.352Z,6.40
2017-07-22T00:15:05.648Z,6.60
2017-07-22T00:15:18.074Z,6.50
2017-07-22T00:15:38.685Z,3.83
2017-07-22T00:15:43.188Z,3.65
2017-07-22T00:15:47.488Z,3.40
2017-07-22T00:15:51.760Z,3.57
2017-07-22T00:15:56.016Z,3.50
2017-07-22T00:16:00.294Z,3.60
2017-07-22T00:16:04.705Z,3.33
2017-07-22T00:16:08.945Z,3.60
2017-07-22T00:16:13.258Z,3.70
2017-07-22T00:16:17.499Z,3.93
2017-07-22T00:16:21.774Z,4.50
2017-07-22T00:16:26.051Z,4.85
2017-07-22T00:16:30.374Z,5.15
2017-07-22T00:16:34.658Z,5.53
2017-07-22T00:20:26.223Z,2.60
2017-07-22T00:20:30.461Z,3.45
2017-07-22T00:20:34.692Z,3.30
2017-07-22T00:20:38.946Z,3.40
2017-07-22T00:20:43.965Z,3.70
2017-07-22T00:20:48.190Z,3.80
2017-07-22T00:20:52.436Z,3.90
2017-07-22T00:20:56.660Z,3.90
2017-07-22T00:21:02.728Z,4.03
2017-07-22T00:21:07.003Z,4.20
2017-07-22T00:21:15.407Z,4.20
2017-07-22T00:21:19.682Z,4.03
2017-07-22T00:21:24.766Z,4.10
2017-07-22T00:21:28.982Z,4.20
2017-07-22T00:21:33.727Z,4.25
2017-07-22T00:21:37.975Z,5.63
2017-07-22T00:21:42.571Z,5.65
2017-07-22T00:21:46.833Z,5.50
2017-07-22T00:21:51.885Z,5.50
2017-07-22T00:21:56.189Z,5.47
2017-07-22T00:22:01.287Z,5.33
2017-07-22T00:22:06.295Z,5.10
2017-07-22T00:22:11.494Z,5.10
2017-07-22T00:22:15.784Z,5.23
2017-07-22T00:22:20.028Z,5.40
2017-07-22T00:22:25.121Z,5.40
2017-07-22T00:22:29.361Z,5.40
2017-07-22T00:22:35.072Z,5.33
2017-07-22T00:22:40.080Z,3.97
2017-07-22T00:22:44.379Z,3.90
2017-07-22T00:22:49.529Z,3.97
2017-07-22T00:22:55.712Z,3.90
2017-07-22T00:23:00.051Z,3.80
2017-07-22T00:23:05.164Z,4.05
2017-07-22T00:23:10.580Z,4.20
2017-07-22T00:23:15.536Z,4.10
2017-07-22T00:23:20.567Z,3.90
2017-07-22T00:23:26.501Z,3.70
2017-07-22T00:23:31.452Z,3.55
2017-07-22T00:23:35.683Z,3.57
2017-07-22T00:23:40.739Z,3.40
2017-07-22T00:23:45.723Z,3.25
2017-07-22T00:23:49.967Z,3.20
2017-07-22T00:23:54.210Z,3.23
2017-07-22T00:23:58.447Z,3.25
2017-07-22T00:24:03.469Z,3.50
2017-07-22T00:24:07.730Z,3.33
2017-07-22T00:24:11.966Z,3.55
2017-07-22T00:24:16.255Z,3.70
2017-07-22T00:24:21.406Z,3.85
2017-07-22T00:24:26.507Z,4.00
2017-07-22T00:24:32.001Z,4.07
2017-07-22T00:24:36.233Z,3.85
2017-07-22T00:24:41.275Z,4.00
2017-07-22T00:24:45.560Z,4.00
2017-07-22T00:24:52.769Z,3.90
2017-07-22T00:24:58.068Z,3.77
2017-07-22T00:25:02.659Z,3.10
2017-07-22T00:25:09.373Z,2.95
2017-07-22T00:25:15.419Z,3.02
2017-07-22T00:25:20.185Z,2.83
2017-07-22T00:25:24.627Z,2.70
2017-07-22T00:25:29.063Z,2.90
2017-07-22T00:25:34.589Z,2.90
2017-07-22T00:25:39.622Z,3.00
2017-07-22T00:25:45.628Z,3.00
2017-07-22T00:25:50.211Z,3.12
2017-07-22T00:25:54.652Z,3.30
2017-07-22T00:26:00.556Z,3.40
2017-07-22T00:26:05.829Z,3.40
2017-07-22T00:26:10.526Z,3.30
2017-07-22T00:26:15.153Z,3.20
2017-07-22T00:26:21.308Z,3.30
2017-07-22T00:26:25.714Z,3.30
2017-07-22T00:26:30.478Z,3.20
2017-07-22T00:26:34.804Z,3.25
2017-07-22T00:26:39.435Z,3.07
2017-07-22T00:26:43.925Z,2.90
2017-07-22T00:26:49.136Z,2.73
2017-07-22T00:26:54.265Z,2.53
2017-07-22T00:26:58.726Z,2.50
2017-07-22T00:27:05.254Z,2.54
2017-07-22T00:27:11.257Z,2.60
2017-07-22T00:27:18.075Z,2.60
2017-07-22T00:27:23.432Z,2.68
2017-07-22T00:27:28.135Z,2.62
2017-07-22T00:27:32.575Z,2.60
2017-07-22T00:27:37.136Z,2.53
2017-07-22T00:27:41.598Z,2.60
2017-07-22T00:27:47.720Z,2.67
2017-07-22T00:27:53.612Z,2.80
2017-07-22T00:27:58.247Z,3.08
2017-07-22T00:28:04.082Z,3.17
2017-07-22T00:28:08.691Z,2.80
2017-07-22T00:28:13.167Z,2.80
2017-07-22T00:28:19.369Z,2.90
2017-07-22T00:28:23.796Z,3.00
2017-07-22T00:28:28.214Z,3.20
2017-07-22T00:28:33.396Z,3.30
2017-07-22T00:28:38.863Z,3.60
2017-07-22T00:28:43.379Z,3.70
2017-07-22T00:28:47.732Z,3.83
2017-07-22T00:28:52.175Z,3.85
2017-07-22T00:28:57.350Z,3.63
2017-07-22T00:29:02.417Z,3.80
2017-07-22T00:29:07.864Z,3.87
2017-07-22T00:29:13.437Z,3.90
2017-07-22T00:29:17.938Z,3.87
2017-07-22T00:29:23.023Z,4.00
2017-07-22T00:29:27.447Z,4.05
2017-07-22T00:29:32.184Z,4.20
2017-07-22T00:29:38.420Z,4.17
2017-07-22T00:29:43.811Z,4.00
2017-07-22T00:29:48.158Z,3.83
2017-07-22T00:29:52.763Z,4.03
2017-07-22T00:29:58.051Z,4.20
2017-07-22T00:30:03.475Z,3.90
2017-07-22T00:30:08.853Z,3.73
2017-07-22T00:30:13.829Z,3.90
2017-07-22T00:30:18.150Z,3.90
2017-07-22T00:30:23.369Z,3.63
2017-07-22T00:30:28.126Z,3.50
2017-07-22T00:30:33.814Z,3.47
2017-07-22T00:30:39.029Z,3.40
2017-07-22T00:30:43.568Z,3.53
2017-07-22T00:30:48.238Z,3.65
2017-07-22T00:30:52.626Z,3.97
2017-07-22T00:30:57.114Z,4.00
2017-07-22T00:31:02.276Z,4.17
2017-07-22T00:31:06.665Z,4.33
2017-07-22T00:31:11.161Z,4.60
2017-07-22T00:31:16.484Z,4.70
2017-07-22T00:31:23.132Z,4.70
2017-07-22T00:31:27.598Z,4.70
2017-07-22T00:31:31.998Z,4.50
2017-07-22T00:31:37.408Z,4.30
2017-07-22T00:31:41.940Z,4.25
2017-07-22T00:31:47.187Z,4.20
2017-07-22T00:31:51.754Z,3.70
2017-07-22T00:31:56.257Z,3.27
2017-07-22T00:32:00.630Z,3.40
2017-07-22T00:32:05.573Z,3.33
2017-07-22T00:32:10.348Z,3.10
2017-07-22T00:32:14.926Z,3.05
2017-07-22T00:32:19.302Z,2.90
2017-07-22T00:32:23.612Z,2.90
2017-07-22T00:32:28.191Z,2.90
2017-07-22T00:32:32.536Z,3.20
2017-07-22T00:32:37.225Z,3.20
2017-07-22T00:32:41.632Z,3.10
2017-07-22T00:32:46.952Z,3.00
2017-07-22T00:32:51.648Z,3.00
2017-07-22T00:32:56.109Z,3.03
2017-07-22T00:33:01.444Z,3.10
2017-07-22T00:33:05.949Z,3.20
2017-07-22T00:33:11.306Z,3.05
2017-07-22T00:33:15.620Z,3.00
2017-07-22T00:33:20.040Z,2.77
2017-07-22T00:33:25.780Z,2.90
2017-07-22T00:33:30.205Z,3.08
2017-07-22T00:33:34.614Z,3.30
2017-07-22T00:33:39.819Z,3.40
2017-07-22T00:33:44.356Z,3.53
2017-07-22T00:33:48.779Z,3.87
2017-07-22T00:33:53.234Z,4.00
2017-07-22T00:33:57.612Z,3.80
2017-07-22T00:34:02.238Z,3.50
2017-07-22T00:34:06.952Z,3.47
2017-07-22T00:34:11.509Z,3.50
2017-07-22T00:34:15.885Z,3.50
2017-07-22T00:34:20.932Z,3.55
2017-07-22T00:34:27.653Z,3.23
2017-07-22T00:34:33.185Z,3.10
2017-07-22T00:34:38.330Z,3.00
2017-07-22T00:34:42.879Z,3.10
2017-07-22T00:34:47.335Z,2.80
2017-07-22T00:34:51.944Z,2.87
2017-07-22T00:34:56.582Z,3.00
2017-07-22T00:35:01.125Z,3.00
2017-07-22T00:35:05.975Z,3.00
2017-07-22T00:35:10.559Z,3.03
2017-07-22T00:35:15.035Z,3.20
2017-07-22T00:35:20.282Z,3.47
2017-07-22T00:35:24.667Z,3.50
2017-07-22T00:35:29.169Z,3.50
2017-07-22T00:35:34.456Z,4.23
2017-07-22T00:35:39.583Z,4.30
2017-07-22T00:35:44.379Z,4.20
2017-07-22T00:35:48.874Z,4.40
2017-07-22T00:35:54.252Z,4.40
2017-07-22T00:35:58.836Z,4.47
2017-07-22T00:36:04.533Z,4.97
2017-07-22T00:36:09.290Z,5.00
2017-07-22T00:36:13.921Z,4.67
2017-07-22T00:36:18.288Z,4.53
2017-07-22T00:36:23.584Z,4.75
2017-07-22T00:36:29.111Z,5.10
2017-07-22T00:36:34.170Z,4.28
2017-07-22T00:36:39.540Z,4.50
2017-07-22T00:36:43.904Z,4.67
2017-07-22T00:36:49.140Z,4.65
2017-07-22T00:36:53.589Z,4.60
2017-07-22T00:36:58.747Z,4.60
2017-07-22T00:37:03.985Z,4.10
2017-07-22T00:37:08.393Z,4.55
2017-07-22T00:37:14.177Z,4.60
2017-07-22T00:37:18.929Z,4.65
2017-07-22T00:37:23.575Z,4.50
2017-07-22T00:37:29.155Z,4.30
2017-07-22T00:37:33.925Z,4.12
2017-07-22T00:37:38.527Z,3.80
2017-07-22T00:37:43.623Z,3.57
2017-07-22T00:37:48.029Z,3.33
2017-07-22T00:37:53.085Z,3.20
2017-07-22T00:37:57.824Z,3.27
2017-07-22T00:38:02.170Z,3.50
2017-07-22T00:38:06.766Z,3.25
2017-07-22T00:38:11.300Z,3.10
2017-07-22T00:38:15.829Z,3.00
2017-07-22T00:38:20.314Z,3.00
2017-07-22T00:38:24.798Z,2.90
2017-07-22T00:38:29.177Z,2.93
2017-07-22T00:38:33.617Z,3.00
2017-07-22T00:38:38.715Z,3.00
2017-07-22T00:38:44.225Z,3.00
2017-07-22T00:38:48.636Z,2.90
2017-07-22T00:38:52.971Z,3.37
2017-07-22T00:38:57.376Z,3.30
2017-07-22T00:39:02.519Z,3.35
2017-07-22T00:39:07.059Z,3.00
2017-07-22T00:39:11.557Z,3.00
2017-07-22T00:39:15.837Z,3.03
2017-07-22T00:39:20.204Z,2.90
2017-07-22T00:39:25.696Z,3.00
2017-07-22T00:39:30.121Z,3.03
2017-07-22T00:39:34.590Z,3.15
2017-07-22T00:39:39.600Z,3.80
2017-07-22T00:39:44.260Z,3.67
2017-07-22T00:39:49.893Z,3.57
2017-07-22T00:39:54.220Z,3.23
2017-07-22T00:39:58.768Z,3.10
2017-07-22T00:40:04.142Z,3.00
2017-07-22T00:40:09.263Z,3.20
2017-07-22T00:40:13.738Z,3.35
2017-07-22T00:40:18.112Z,3.50
2017-07-22T00:40:22.429Z,3.50
2017-07-22T00:40:27.396Z,3.43
2017-07-22T00:40:33.251Z,3.40
2017-07-22T00:40:37.680Z,2.85
2017-07-22T00:40:42.017Z,2.95
2017-07-22T00:40:46.440Z,3.05
2017-07-22T00:40:52.059Z,3.30
2017-07-22T00:40:57.535Z,3.50
2017-07-22T00:41:02.139Z,3.60
2017-07-22T00:41:06.605Z,3.53
2017-07-22T00:41:11.072Z,3.40
2017-07-22T00:41:15.534Z,3.17
2017-07-22T00:41:20.173Z,3.20
2017-07-22T00:41:24.614Z,3.10
2017-07-22T00:41:28.940Z,3.00
2017-07-22T00:41:33.497Z,2.90
2017-07-22T00:41:37.855Z,2.80
2017-07-22T00:41:43.041Z,3.17
2017-07-22T00:41:47.492Z,3.13
2017-07-22T00:41:51.920Z,3.05
2017-07-22T00:41:56.412Z,2.80
2017-07-22T00:42:00.822Z,2.77
2017-07-22T00:42:05.324Z,2.65
2017-07-22T00:42:10.664Z,2.73
2017-07-22T00:42:15.123Z,3.17
2017-07-22T00:42:19.514Z,3.03
2017-07-22T00:42:23.965Z,3.10
2017-07-22T00:42:28.930Z,3.50
2017-07-22T00:42:34.635Z,3.57
2017-07-22T00:42:39.942Z,4.13
2017-07-22T00:42:44.802Z,3.65
2017-07-22T00:42:49.355Z,3.50
2017-07-22T00:42:53.766Z,3.50
2017-07-22T00:42:59.120Z,3.60
2017-07-22T00:43:03.508Z,3.97
2017-07-22T00:43:07.902Z,4.00
2017-07-22T00:43:12.741Z,3.60
2017-07-22T00:43:17.117Z,3.50
2017-07-22T00:43:21.643Z,3.55
2017-07-22T00:43:27.147Z,3.65
2017-07-22T00:43:31.638Z,3.85
2017-07-22T00:43:36.231Z,3.57
2017-07-22T00:43:40.774Z,3.55
2017-07-22T00:43:45.124Z,3.97
2017-07-22T00:43:50.156Z,4.10
2017-07-22T00:43:55.519Z,4.53
2017-07-22T00:43:59.837Z,4.87
2017-07-22T00:44:04.183Z,4.90
2017-07-22T00:44:09.534Z,5.00
2017-07-22T00:44:14.743Z,5.07
2017-07-22T00:44:19.324Z,5.18
2017-07-22T00:44:23.677Z,5.05
2017-07-22T00:44:28.124Z,4.80
2017-07-22T00:44:33.466Z,4.35
2017-07-22T00:44:39.014Z,4.30
2017-07-22T00:44:43.620Z,4.05
2017-07-22T00:44:48.027Z,3.77
2017-07-22T00:44:52.464Z,3.45
2017-07-22T00:44:56.947Z,3.37
2017-07-22T00:45:01.568Z,3.20
2017-07-22T00:45:06.023Z,3.00
2017-07-22T00:45:10.678Z,3.10
2017-07-22T00:45:16.009Z,3.07
2017-07-22T00:45:20.524Z,2.90
2017-07-22T00:45:24.862Z,2.90
2017-07-22T00:45:29.288Z,2.90
2017-07-22T00:45:34.427Z,2.80
2017-07-22T00:45:39.031Z,2.90
2017-07-22T00:45:44.721Z,3.00
2017-07-22T00:45:49.045Z,3.17
2017-07-22T00:45:53.491Z,3.10
2017-07-22T00:45:57.931Z,3.03
2017-07-22T00:46:02.989Z,3.20
2017-07-22T00:46:07.407Z,3.20
2017-07-22T00:46:11.899Z,3.30
2017-07-22T00:46:16.324Z,3.50
2017-07-22T00:46:20.846Z,3.60
2017-07-22T00:46:25.229Z,3.70
2017-07-22T00:46:29.642Z,3.87
2017-07-22T00:46:33.857Z,3.85
2017-07-22T00:46:38.108Z,3.60
2017-07-22T00:46:42.367Z,3.40
2017-07-22T00:46:46.639Z,3.30
2017-07-22T00:46:50.868Z,3.20
2017-07-22T00:46:55.097Z,3.50
2017-07-22T00:46:59.382Z,3.50
2017-07-22T00:47:03.690Z,3.50
2017-07-22T00:47:07.974Z,3.50
2017-07-22T00:47:12.210Z,3.40
2017-07-22T00:47:16.462Z,3.50
2017-07-22T00:47:20.748Z,3.50
2017-07-22T00:47:24.991Z,3.60
2017-07-22T00:47:29.217Z,3.70
2017-07-22T00:47:33.472Z,3.90
2017-07-22T00:47:37.698Z,4.20
2017-07-22T00:47:42.671Z,4.40
2017-07-22T00:47:46.913Z,4.70
2017-07-22T00:47:51.955Z,4.70
2017-07-22T00:47:56.509Z,4.50
2017-07-22T00:48:00.727Z,4.80
2017-07-22T00:48:04.959Z,5.20
2017-07-22T00:48:09.308Z,5.17
2017-07-22T00:48:13.568Z,4.90
2017-07-22T00:48:17.852Z,4.90
2017-07-22T00:48:22.122Z,4.95
2017-07-22T00:48:26.658Z,4.80
2017-07-22T00:48:30.853Z,4.80
2017-07-22T00:48:35.104Z,5.07
2017-07-22T00:48:39.489Z,5.15
2017-07-22T00:48:43.717Z,4.75
2017-07-22T00:48:48.839Z,4.70
2017-07-22T00:48:53.067Z,4.77
2017-07-22T00:48:57.411Z,5.15
2017-07-22T00:49:01.629Z,4.45
2017-07-22T00:49:05.878Z,4.30
2017-07-22T00:49:10.142Z,4.50
2017-07-22T00:49:14.533Z,4.65
2017-07-22T00:49:19.389Z,4.77
2017-07-22T00:49:23.638Z,5.00
2017-07-22T00:49:27.950Z,4.85
2017-07-22T00:49:32.190Z,4.70
2017-07-22T00:49:36.483Z,4.00
2017-07-22T00:49:41.563Z,4.35
2017-07-22T00:49:45.909Z,4.60
2017-07-22T00:49:50.138Z,5.67
2017-07-22T00:49:54.420Z,6.20
2017-07-22T00:49:59.765Z,6.75
2017-07-22T00:50:04.481Z,7.62
2017-07-22T00:50:08.730Z,8.95
2017-07-22T00:50:12.981Z,10.47
2017-07-22T00:50:17.225Z,12.00
2017-07-22T00:50:21.482Z,12.85
2017-07-22T00:50:25.716Z,13.80
2017-07-22T00:50:29.979Z,14.17
2017-07-22T00:50:34.257Z,14.85
2017-07-22T00:50:38.530Z,15.30
2017-07-22T00:50:42.767Z,15.83
2017-07-22T00:50:47.022Z,16.25
2017-07-22T00:50:51.262Z,16.45
2017-07-22T00:50:55.554Z,16.25
2017-07-22T00:50:59.796Z,15.50
2017-07-22T00:51:04.061Z,14.95
2017-07-22T00:51:08.351Z,14.35
2017-07-22T00:51:12.620Z,13.55
2017-07-22T00:51:16.915Z,12.93
2017-07-22T00:51:21.134Z,12.50
2017-07-22T00:51:25.489Z,11.70
2017-07-22T00:51:29.716Z,11.40
2017-07-22T00:51:33.970Z,10.95
2017-07-22T00:51:38.216Z,10.30
2017-07-22T00:51:42.463Z,9.90
2017-07-22T00:51:46.704Z,8.90
2017-07-22T00:51:51.840Z,7.60
2017-07-22T00:51:56.959Z,7.17
2017-07-22T00:52:01.271Z,6.87
2017-07-22T00:52:05.504Z,6.80
2017-07-22T00:52:09.737Z,6.30
2017-07-22T00:52:14.090Z,5.80
2017-07-22T00:52:18.308Z,4.50
2017-07-22T00:52:22.595Z,4.03
2017-07-22T00:52:26.841Z,4.40
2017-07-22T00:52:31.120Z,5.55
2017-07-22T00:52:35.341Z,6.45
2017-07-22T00:52:40.188Z,7.20
2017-07-22T00:52:44.509Z,7.53
2017-07-22T00:52:48.736Z,7.95
2017-07-22T00:52:52.954Z,8.35
2017-07-22T00:52:57.192Z,8.65
2017-07-22T00:53:01.442Z,8.97
2017-07-22T00:53:05.677Z,8.75
2017-07-22T00:53:09.904Z,8.60
2017-07-22T00:53:14.224Z,8.85
2017-07-22T00:53:18.477Z,9.30
2017-07-22T00:53:22.713Z,10.15
2017-07-22T00:53:26.949Z,10.25
2017-07-22T00:53:31.979Z,9.35
2017-07-22T00:53:36.228Z,9.20
2017-07-22T00:53:40.483Z,9.53
2017-07-22T00:53:46.296Z,10.05
2017-07-22T00:53:50.636Z,10.30
2017-07-22T00:53:54.876Z,10.40
2017-07-22T00:53:59.148Z,10.05
2017-07-22T00:54:03.408Z,9.93
2017-07-22T00:54:07.654Z,9.90
2017-07-22T00:54:12.725Z,10.27
2017-07-22T00:54:17.015Z,10.40
2017-07-22T00:54:21.259Z,10.23
2017-07-22T00:54:25.492Z,10.40
2017-07-22T00:54:29.807Z,10.55
2017-07-22T00:54:34.056Z,10.45
2017-07-22T00:54:38.364Z,10.27
2017-07-22T00:54:42.604Z,9.70
2017-07-22T00:54:46.841Z,10.05
2017-07-22T00:54:52.629Z,10.50
2017-07-22T00:54:56.965Z,11.13
2017-07-22T00:55:01.218Z,12.00
2017-07-22T00:55:05.461Z,13.20
2017-07-22T00:55:09.714Z,13.45
2017-07-22T00:55:13.978Z,13.10
2017-07-22T00:55:18.259Z,13.00
2017-07-22T00:55:23.442Z,12.80
2017-07-22T00:55:27.714Z,12.40
2017-07-22T00:55:31.963Z,11.70
2017-07-22T00:55:36.989Z,10.90
2017-07-22T00:55:41.252Z,10.35
2017-07-22T00:55:45.645Z,9.35
2017-07-22T00:55:50.629Z,9.00
2017-07-22T00:55:55.628Z,8.17
2017-07-22T00:56:01.039Z,7.40
2017-07-22T00:56:05.275Z,5.97
2017-07-22T00:56:09.527Z,5.60
2017-07-22T00:56:13.772Z,5.35
2017-07-22T00:56:18.100Z,5.23
2017-07-22T00:56:22.326Z,4.95
2017-07-22T00:56:26.550Z,4.70
2017-07-22T00:56:31.346Z,5.47
2017-07-22T00:56:35.575Z,6.45
2017-07-22T00:56:40.611Z,7.53
2017-07-22T00:56:44.850Z,7.83
2017-07-22T00:56:49.101Z,7.55
2017-07-22T00:56:53.348Z,7.60
2017-07-22T00:56:57.579Z,7.75
2017-07-22T00:57:01.830Z,8.10
2017-07-22T00:57:06.060Z,9.80
2017-07-22T00:57:10.652Z,10.75
2017-07-22T00:57:14.937Z,12.87
2017-07-22T00:57:19.268Z,13.95
2017-07-22T00:57:23.510Z,14.20
2017-07-22T00:57:27.800Z,14.47
2017-07-22T00:57:32.041Z,13.75
2017-07-22T00:57:36.295Z,13.55
2017-07-22T00:57:40.537Z,13.30
2017-07-22T00:57:44.850Z,14.00
2017-07-22T00:57:49.238Z,14.30
2017-07-22T00:57:54.289Z,15.45
2017-07-22T00:57:58.552Z,17.15
2017-07-22T00:58:03.553Z,18.10
2017-07-22T00:58:07.804Z,18.10
2017-07-22T00:58:12.057Z,17.65
2017-07-22T00:58:16.311Z,16.55
2017-07-22T00:58:21.173Z,16.27
2017-07-22T00:58:25.409Z,16.15
2017-07-22T00:58:29.672Z,15.90
2017-07-22T00:58:34.707Z,17.75
2017-07-22T00:58:39.743Z,17.50
2017-07-22T00:58:43.996Z,16.40
2017-07-22T00:58:48.247Z,16.05
2017-07-22T00:58:52.518Z,14.90
2017-07-22T00:58:56.944Z,13.05
2017-07-22T00:59:01.176Z,11.80
2017-07-22T00:59:05.444Z,10.13
2017-07-22T00:59:09.693Z,10.05
2017-07-22T00:59:13.959Z,9.85
2017-07-22T00:59:18.199Z,10.20
2017-07-22T00:59:22.461Z,10.73
2017-07-22T00:59:26.725Z,10.70
2017-07-22T00:59:30.980Z,10.25
2017-07-22T00:59:35.201Z,8.45
2017-07-22T00:59:39.451Z,8.10
2017-07-22T00:59:43.677Z,8.10
2017-07-22T00:59:47.927Z,8.25
2017-07-22T00:59:52.930Z,8.30
2017-07-22T00:59:57.165Z,8.40
2017-07-22T01:00:01.524Z,8.70
2017-07-22T01:00:05.857Z,8.70
2017-07-22T01:00:10.084Z,7.40
2017-07-22T01:00:14.384Z,6.63
2017-07-22T01:00:18.643Z,6.30
2017-07-22T01:00:22.925Z,6.20
2017-07-22T01:00:28.085Z,6.03
2017-07-22T01:00:32.326Z,5.90
2017-07-22T01:00:36.556Z,6.70
2017-07-22T01:00:41.590Z,6.70
2017-07-22T01:00:46.595Z,6.50
2017-07-22T01:00:51.840Z,6.33
2017-07-22T01:00:56.096Z,6.25
2017-07-22T01:01:01.366Z,5.95
2017-07-22T01:01:06.714Z,6.10
2017-07-22T01:01:11.824Z,6.10
2017-07-22T01:01:16.099Z,5.87
2017-07-22T01:01:21.948Z,4.85
2017-07-22T01:01:26.251Z,5.00
2017-07-22T01:01:31.255Z,5.20
2017-07-22T01:01:36.427Z,5.00
2017-07-22T01:01:40.753Z,5.00
2017-07-22T01:01:44.992Z,5.27
2017-07-22T01:01:49.275Z,5.40
2017-07-22T01:01:54.290Z,5.40
2017-07-22T01:01:58.561Z,5.47
2017-07-22T01:02:02.796Z,5.65
2017-07-22T01:02:08.004Z,5.53
2017-07-22T01:02:12.253Z,6.23
2017-07-22T01:02:16.515Z,6.65
2017-07-22T01:02:20.802Z,6.90
2017-07-22T01:02:25.089Z,6.95
2017-07-22T01:02:29.370Z,6.70
2017-07-22T01:02:34.224Z,6.43
2017-07-22T01:02:40.360Z,5.90
2017-07-22T01:02:45.230Z,5.70
2017-07-22T01:02:49.479Z,5.63
2017-07-22T01:02:53.847Z,5.80
2017-07-22T01:02:58.237Z,5.95
2017-07-22T01:03:02.508Z,6.30
2017-07-22T01:03:07.527Z,6.73
2017-07-22T01:03:12.626Z,6.37
2017-07-22T01:03:16.859Z,6.13
2017-07-22T01:03:21.114Z,6.05
2017-07-22T01:03:26.044Z,6.00
2017-07-22T01:03:30.294Z,6.00
2017-07-22T01:03:35.416Z,6.00
2017-07-22T01:03:40.866Z,6.70
2017-07-22T01:03:45.328Z,6.70
2017-07-22T01:03:49.734Z,6.97
2017-07-22T01:03:54.273Z,7.05
2017-07-22T01:03:58.588Z,6.70
2017-07-22T01:04:02.956Z,5.95
2017-07-22T01:04:07.313Z,5.60
2017-07-22T01:04:11.675Z,5.20
2017-07-22T01:04:16.858Z,4.85
2017-07-22T01:04:23.239Z,4.63
2017-07-22T01:04:30.152Z,4.44
2017-07-22T01:04:35.590Z,4.30
2017-07-22T01:04:40.994Z,4.07
2017-07-22T01:04:46.968Z,4.12
2017-07-22T01:04:51.294Z,3.97
2017-07-22T01:04:56.407Z,3.83
2017-07-22T01:05:00.686Z,3.80
2017-07-22T01:05:04.971Z,3.90
2017-07-22T01:05:09.995Z,3.90
2017-07-22T01:05:14.881Z,4.00
2017-07-22T01:05:19.115Z,5.13
2017-07-22T01:05:24.122Z,5.30
2017-07-22T01:05:29.307Z,5.40
2017-07-22T01:05:34.377Z,5.57
2017-07-22T01:05:39.519Z,5.53
2017-07-22T01:05:44.539Z,5.67
2017-07-22T01:05:48.815Z,5.87
2017-07-22T01:05:53.805Z,6.20
2017-07-22T01:05:58.362Z,6.30
2017-07-22T01:06:02.716Z,6.13
2017-07-22T01:06:06.946Z,6.20
2017-07-22T01:06:11.955Z,6.43
2017-07-22T01:06:16.200Z,6.03
2017-07-22T01:06:20.429Z,5.45
2017-07-22T01:06:24.684Z,5.25
2017-07-22T01:06:28.918Z,5.20
2017-07-22T01:06:33.194Z,5.00
2017-07-22T01:06:37.424Z,4.75
2017-07-22T01:06:41.673Z,4.40
2017-07-22T01:06:45.906Z,3.85
2017-07-22T01:06:50.160Z,3.67
2017-07-22T01:06:55.189Z,3.20
2017-07-22T01:07:00.204Z,3.10
2017-07-22T01:07:05.220Z,3.03
2017-07-22T01:07:09.525Z,3.03